Airport View

Enter AWOS ICAO identifier for current METAR.

ex. KFNL

KGUC 080456Z AUTO 00000KT 10SM CLR 14/M02 A3035 RMK AO2 SLP193 T01441017

8 Aug 2020 05:18

Frequency: 135.075

Phone: 970-641-3240

Other Area AWOS: KMYP - K7BM - KASE - KANK

TAF KGUC 072333Z 0800/0824 27010G20KT P6SM FEW120 FM080100 27010KT P6SM FEW120 FM080300 VRB03KT P6SM SKC FM081900 25010G18KT P6SM FEW120 FEW250